Sealth Arrow — WCX9294 — position and weather

sailwx.info

Track history (hours):
 
Tides and Currents Weather Stations Pressure Air Temp Water Temp Dewpoint Dewpoint Depression Visibility Wind Speed Wind Dir Waves Ship Positions

Sealth Arrow

Owner: ARROW LAUNCH SERVICE, INC, PORT ANGELES, WA. More information available from US FCC via Universal Licensing System and Coast Guard Vessel Documentation Center.

Last reported at 2018-Feb-18 16:06 UTC. Time now 2018-Feb-21 15:35 UTC.
Position N 48°08' W 123°26'.

Type: Port tender. MMSI: 367326780.

Date/timePositionNaut miles runAvg speedWind from/ knotsBaromVisibWave heightAir tempDewpointWater temp
2018-Feb-18 16:06N 48°08' W 123°26'0 3.0
2018-Feb-18 16:00N 48°08' W 123°25'1 0.1
2018-Feb-18 07:16N 48°08' W 123°27'1 0.1
2018-Feb-17 16:12N 48°08' W 123°25'0 0.2
2018-Feb-17 16:00N 48°08' W 123°25'1 0.1
2018-Feb-17 07:41N 48°08' W 123°27'  
2018-Feb-14 05:58N 48°08' W 123°27'1 0.1
2018-Feb-13 15:48N 48°08' W 123°25'2 5.0
2018-Feb-13 15:29N 48°07' W 123°27'0 0.0
2018-Feb-13 06:27N 48°08' W 123°27'0 0.1
2018-Feb-13 04:05N 48°08' W 123°27'110.4
2018-Feb-13 03:59N 48°08' W 123°26'1 0.6
2018-Feb-13 02:13N 48°08' W 123°27'2 4.5
2018-Feb-13 01:51N 48°08' W 123°25'2 2.5
2018-Feb-13 01:14N 48°08' W 123°27'1 1.0
2018-Feb-13 00:39N 48°07' W 123°26'0 2.1
2018-Feb-13 00:26N 48°08' W 123°26'1 1.5
2018-Feb-13 00:00N 48°08' W 123°25'1 0.3
2018-Feb-12 20:25N 48°08' W 123°27'1 1.7
2018-Feb-12 20:00N 48°07' W 123°26'1 1.6
2018-Feb-12 19:30N 48°08' W 123°25'0 0.1
2018-Feb-12 18:59N 48°08' W 123°25'0 0.0
2018-Feb-12 18:30N 48°08' W 123°25'0 0.0
2018-Feb-12 18:00N 48°08' W 123°25'0 0.1
2018-Feb-12 17:30N 48°08' W 123°25'1 1.0
2018-Feb-12 16:37N 48°07' W 123°26'1 5.4
2018-Feb-12 16:30N 48°08' W 123°27'1 0.1
2018-Feb-12 06:50N 48°08' W 123°26'0 1.3
2018-Feb-12 06:28N 48°08' W 123°25'1 0.1
2018-Feb-11 15:00N 48°08' W 123°27'4 7.5
2018-Feb-11 14:30N 48°10' W 123°23'2 4.8
2018-Feb-11 14:00N 48°10' W 123°27'2 5.0
2018-Feb-11 13:30N 48°08' W 123°26'  
Track history (hours):
 
Tides and Currents Weather Stations Pressure Air Temp Water Temp Dewpoint Dewpoint Depression Visibility Wind Speed Wind Dir Waves Ship Positions

Sealth Arrow

Owner: ARROW LAUNCH SERVICE, INC, PORT ANGELES, WA. More information available from US FCC via Universal Licensing System and Coast Guard Vessel Documentation Center.

Last reported at 2018-Feb-18 16:06 UTC. Time now 2018-Feb-21 15:35 UTC.
Position N 48°08' W 123°26'.

Type: Port tender. MMSI: 367326780.

Date/timePositionNaut miles runAvg speedWind from/ knotsBaromVisibWave heightAir tempDewpointWater temp
2018-Feb-18 16:06N 48°08' W 123°26'0 3.0
2018-Feb-18 16:00N 48°08' W 123°25'1 0.1
2018-Feb-18 07:16N 48°08' W 123°27'1 0.1
2018-Feb-17 16:12N 48°08' W 123°25'0 0.2
2018-Feb-17 16:00N 48°08' W 123°25'1 0.1
2018-Feb-17 07:41N 48°08' W 123°27'  
2018-Feb-14 05:58N 48°08' W 123°27'1 0.1
2018-Feb-13 15:48N 48°08' W 123°25'2 5.0
2018-Feb-13 15:29N 48°07' W 123°27'0 0.0
2018-Feb-13 06:27N 48°08' W 123°27'0 0.1
2018-Feb-13 04:05N 48°08' W 123°27'110.4
2018-Feb-13 03:59N 48°08' W 123°26'1 0.6
2018-Feb-13 02:13N 48°08' W 123°27'2 4.5
2018-Feb-13 01:51N 48°08' W 123°25'2 2.5
2018-Feb-13 01:14N 48°08' W 123°27'1 1.0
2018-Feb-13 00:39N 48°07' W 123°26'0 2.1
2018-Feb-13 00:26N 48°08' W 123°26'1 1.5
2018-Feb-13 00:00N 48°08' W 123°25'1 0.3
2018-Feb-12 20:25N 48°08' W 123°27'1 1.7
2018-Feb-12 20:00N 48°07' W 123°26'1 1.6
2018-Feb-12 19:30N 48°08' W 123°25'0 0.1
2018-Feb-12 18:59N 48°08' W 123°25'0 0.0
2018-Feb-12 18:30N 48°08' W 123°25'0 0.0
2018-Feb-12 18:00N 48°08' W 123°25'0 0.1
2018-Feb-12 17:30N 48°08' W 123°25'1 1.0
2018-Feb-12 16:37N 48°07' W 123°26'1 5.4
2018-Feb-12 16:30N 48°08' W 123°27'1 0.1
2018-Feb-12 06:50N 48°08' W 123°26'0 1.3
2018-Feb-12 06:28N 48°08' W 123°25'1 0.1
2018-Feb-11 15:00N 48°08' W 123°27'4 7.5
2018-Feb-11 14:30N 48°10' W 123°23'2 4.8
2018-Feb-11 14:00N 48°10' W 123°27'2 5.0
2018-Feb-11 13:30N 48°08' W 123°26'  

Dump ship's entire track history